sensor_id;sensor_type;location;lat;lon;timestamp;pressure;altitude;pressure_sealevel;temperature;humidity
34931;BME280;21134;49.646;8.560;2023-04-28T00:02:09;100280.13;;;11.15;77.65
34931;BME280;21134;49.646;8.560;2023-04-28T00:04:36;100280.13;;;11.17;76.92
34931;BME280;21134;49.646;8.560;2023-04-28T00:07:03;100282.66;;;11.22;75.24
34931;BME280;21134;49.646;8.560;2023-04-28T00:09:29;100272.38;;;11.25;75.34
34931;BME280;21134;49.646;8.560;2023-04-28T00:11:57;100262.09;;;11.29;74.87
34931;BME280;21134;49.646;8.560;2023-04-28T00:14:24;100256.94;;;11.32;76.95
34931;BME280;21134;49.646;8.560;2023-04-28T00:16:50;100252.66;;;11.37;78.59
34931;BME280;21134;49.646;8.560;2023-04-28T00:19:17;100261.16;;;11.41;82.24
34931;BME280;21134;49.646;8.560;2023-04-28T00:21:44;100261.19;;;11.39;84.26
34931;BME280;21134;49.646;8.560;2023-04-28T00:24:11;100248.44;;;11.30;85.01
34931;BME280;21134;49.646;8.560;2023-04-28T00:26:38;100237.41;;;11.22;86.70
34931;BME280;21134;49.646;8.560;2023-04-28T00:29:05;100242.56;;;11.17;87.75
34931;BME280;21134;49.646;8.560;2023-04-28T00:31:32;100231.47;;;11.15;89.00
34931;BME280;21134;49.646;8.560;2023-04-28T00:33:59;100229.81;;;11.10;89.53
34931;BME280;21134;49.646;8.560;2023-04-28T00:36:26;100221.34;;;11.05;89.00
34931;BME280;21134;49.646;8.560;2023-04-28T00:38:56;100218.75;;;11.08;89.71
34931;BME280;21134;49.646;8.560;2023-04-28T00:41:22;100211.88;;;11.10;89.81
34931;BME280;21134;49.646;8.560;2023-04-28T00:43:49;100212.69;;;11.16;90.21
34931;BME280;21134;49.646;8.560;2023-04-28T00:46:20;100210.13;;;11.16;90.47
34931;BME280;21134;49.646;8.560;2023-04-28T00:48:48;100216.16;;;11.14;91.05
34931;BME280;21134;49.646;8.560;2023-04-28T00:51:15;100198.13;;;11.25;90.46
34931;BME280;21134;49.646;8.560;2023-04-28T00:53:42;100198.09;;;11.28;89.19
34931;BME280;21134;49.646;8.560;2023-04-28T00:56:09;100193.78;;;11.31;89.09
34931;BME280;21134;49.646;8.560;2023-04-28T00:58:36;100178.41;;;11.36;89.93
34931;BME280;21134;49.646;8.560;2023-04-28T01:01:03;100174.94;;;11.38;89.71
34931;BME280;21134;49.646;8.560;2023-04-28T01:03:33;100179.22;;;11.38;90.83
34931;BME280;21134;49.646;8.560;2023-04-28T01:06:03;100168.19;;;11.33;91.59
34931;BME280;21134;49.646;8.560;2023-04-28T01:08:30;100161.41;;;11.24;91.76
34931;BME280;21134;49.646;8.560;2023-04-28T01:10:57;100170.84;;;11.19;92.44
34931;BME280;21134;49.646;8.560;2023-04-28T01:13:23;100166.63;;;11.15;93.67
34931;BME280;21134;49.646;8.560;2023-04-28T01:15:50;100159.00;;;11.09;93.94
34931;BME280;21134;49.646;8.560;2023-04-28T01:18:17;100155.59;;;11.05;94.16
34931;BME280;21134;49.646;8.560;2023-04-28T01:20:45;100153.03;;;11.07;94.75
34931;BME280;21134;49.646;8.560;2023-04-28T01:23:12;100150.50;;;11.02;94.31
34931;BME280;21134;49.646;8.560;2023-04-28T01:25:40;100144.53;;;11.05;96.02
34931;BME280;21134;49.646;8.560;2023-04-28T01:28:07;100147.91;;;11.07;97.03
34931;BME280;21134;49.646;8.560;2023-04-28T01:30:33;100137.63;;;11.10;97.96
34931;BME280;21134;49.646;8.560;2023-04-28T01:33:00;100140.19;;;11.10;96.78
34931;BME280;21134;49.646;8.560;2023-04-28T01:35:27;100143.66;;;11.07;97.88
34931;BME280;21134;49.646;8.560;2023-04-28T01:37:54;100140.19;;;11.10;97.96
34931;BME280;21134;49.646;8.560;2023-04-28T01:40:20;100144.53;;;11.03;97.44
34931;BME280;21134;49.646;8.560;2023-04-28T01:42:48;100148.00;;;10.98;97.62
34931;BME280;21134;49.646;8.560;2023-04-28T01:45:15;100146.28;;;10.97;97.91
34931;BME280;21134;49.646;8.560;2023-04-28T01:47:42;100150.50;;;11.01;98.55
34931;BME280;21134;49.646;8.560;2023-04-28T01:50:09;100155.63;;;11.01;98.74
34931;BME280;21134;49.646;8.560;2023-04-28T01:52:35;100142.91;;;10.94;97.77
34931;BME280;21134;49.646;8.560;2023-04-28T01:55:02;100147.16;;;10.96;96.46
34931;BME280;21134;49.646;8.560;2023-04-28T01:57:29;100148.00;;;10.96;96.20
34931;BME280;21134;49.646;8.560;2023-04-28T01:59:57;100153.13;;;10.98;96.00
34931;BME280;21134;49.646;8.560;2023-04-28T02:02:24;100146.28;;;10.98;96.40
34931;BME280;21134;49.646;8.560;2023-04-28T02:04:51;100141.16;;;10.97;97.60
34931;BME280;21134;49.646;8.560;2023-04-28T02:07:17;100148.88;;;10.93;99.03
34931;BME280;21134;49.646;8.560;2023-04-28T02:09:44;100148.88;;;10.93;99.59
34931;BME280;21134;49.646;8.560;2023-04-28T02:12:11;100145.47;;;10.90;99.29
34931;BME280;21134;49.646;8.560;2023-04-28T02:14:37;100142.09;;;10.86;100.00
34931;BME280;21134;49.646;8.560;2023-04-28T02:17:05;100144.66;;;10.86;100.00
34931;BME280;21134;49.646;8.560;2023-04-28T02:19:31;100146.38;;;10.84;100.00
34931;BME280;21134;49.646;8.560;2023-04-28T02:21:58;100153.22;;;10.85;100.00
34931;BME280;21134;49.646;8.560;2023-04-28T02:24:24;100149.78;;;10.86;99.68
34931;BME280;21134;49.646;8.560;2023-04-28T02:26:51;100155.75;;;10.88;98.96
34931;BME280;21134;49.646;8.560;2023-04-28T02:29:17;100154.88;;;10.89;97.99
34931;BME280;21134;49.646;8.560;2023-04-28T02:31:44;100158.28;;;10.90;97.59
34931;BME280;21134;49.646;8.560;2023-04-28T02:34:12;100163.44;;;10.88;98.90
34931;BME280;21134;49.646;8.560;2023-04-28T02:36:39;100163.44;;;10.87;97.95
34931;BME280;21134;49.646;8.560;2023-04-28T02:39:05;100173.63;;;10.90;98.35
34931;BME280;21134;49.646;8.560;2023-04-28T02:41:32;100161.69;;;10.92;97.55
34931;BME280;21134;49.646;8.560;2023-04-28T02:43:59;100161.69;;;10.92;96.76
34931;BME280;21134;49.646;8.560;2023-04-28T02:46:25;100161.66;;;10.93;95.13
34931;BME280;21134;49.646;8.560;2023-04-28T02:48:52;100162.53;;;10.92;95.63
34931;BME280;21134;49.646;8.560;2023-04-28T02:51:20;100163.38;;;10.93;93.71
34931;BME280;21134;49.646;8.560;2023-04-28T02:53:46;100170.22;;;10.91;93.96
34931;BME280;21134;49.646;8.560;2023-04-28T02:56:12;100157.41;;;10.91;93.56
34931;BME280;21134;49.646;8.560;2023-04-28T02:58:39;100151.44;;;10.93;94.47
34931;BME280;21134;49.646;8.560;2023-04-28T03:01:05;100144.56;;;10.97;95.54
34931;BME280;21134;49.646;8.560;2023-04-28T03:03:32;100142.00;;;10.97;95.38
34931;BME280;21134;49.646;8.560;2023-04-28T03:05:58;100129.22;;;10.99;97.35
34931;BME280;21134;49.646;8.560;2023-04-28T03:08:26;100137.75;;;10.96;98.17
34931;BME280;21134;49.646;8.560;2023-04-28T03:10:53;100131.78;;;10.99;99.16
34931;BME280;21134;49.646;8.560;2023-04-28T03:13:19;100138.59;;;10.98;100.00
34931;BME280;21134;49.646;8.560;2023-04-28T03:15:46;100133.50;;;10.95;100.00
34931;BME280;21134;49.646;8.560;2023-04-28T03:18:12;100131.00;;;10.89;100.00
34931;BME280;21134;49.646;8.560;2023-04-28T03:20:39;100119.88;;;10.90;100.00
34931;BME280;21134;49.646;8.560;2023-04-28T03:23:06;100120.75;;;10.89;100.00
34931;BME280;21134;49.646;8.560;2023-04-28T03:25:34;100124.16;;;10.89;100.00
34931;BME280;21134;49.646;8.560;2023-04-28T03:28:01;100108.81;;;10.88;100.00
34931;BME280;21134;49.646;8.560;2023-04-28T03:30:27;100110.53;;;10.87;100.00
34931;BME280;21134;49.646;8.560;2023-04-28T03:32:54;100090.06;;;10.84;100.00
34931;BME280;21134;49.646;8.560;2023-04-28T03:35:21;100091.78;;;10.85;100.00
34931;BME280;21134;49.646;8.560;2023-04-28T03:37:47;100096.00;;;10.88;100.00
34931;BME280;21134;49.646;8.560;2023-04-28T03:40:14;100096.00;;;10.89;100.00
34931;BME280;21134;49.646;8.560;2023-04-28T03:42:43;100090.91;;;10.89;100.00
34931;BME280;21134;49.646;8.560;2023-04-28T03:45:10;100091.75;;;10.90;100.00
34931;BME280;21134;49.646;8.560;2023-04-28T03:47:37;100087.50;;;10.89;100.00
34931;BME280;21134;49.646;8.560;2023-04-28T03:50:04;100075.53;;;10.89;100.00
34931;BME280;21134;49.646;8.560;2023-04-28T03:52:30;100072.91;;;10.94;100.00
34931;BME280;21134;49.646;8.560;2023-04-28T03:54:57;100067.78;;;10.97;100.00
34931;BME280;21134;49.646;8.560;2023-04-28T03:57:23;100073.78;;;10.98;100.00
34931;BME280;21134;49.646;8.560;2023-04-28T03:59:51;100070.34;;;10.97;100.00
34931;BME280;21134;49.646;8.560;2023-04-28T04:02:18;100076.31;;;10.96;100.00
34931;BME280;21134;49.646;8.560;2023-04-28T04:04:44;100073.78;;;10.93;100.00
34931;BME280;21134;49.646;8.560;2023-04-28T04:07:12;100061.88;;;10.87;100.00
34931;BME280;21134;49.646;8.560;2023-04-28T04:09:38;100067.00;;;10.89;100.00
34931;BME280;21134;49.646;8.560;2023-04-28T04:12:06;100054.22;;;10.87;100.00
34931;BME280;21134;49.646;8.560;2023-04-28T04:14:32;100055.91;;;10.90;100.00
34931;BME280;21134;49.646;8.560;2023-04-28T04:17:00;100060.13;;;10.94;100.00
34931;BME280;21134;49.646;8.560;2023-04-28T04:19:27;100056.75;;;10.92;100.00
34931;BME280;21134;49.646;8.560;2023-04-28T04:21:53;100066.16;;;10.91;100.00
34931;BME280;21134;49.646;8.560;2023-04-28T04:24:20;100072.97;;;10.88;100.00
34931;BME280;21134;49.646;8.560;2023-04-28T04:26:47;100071.31;;;10.84;100.00
34931;BME280;21134;49.646;8.560;2023-04-28T04:29:13;100066.19;;;10.85;100.00
34931;BME280;21134;49.646;8.560;2023-04-28T04:31:40;100073.06;;;10.82;100.00
34931;BME280;21134;49.646;8.560;2023-04-28T04:34:08;100066.28;;;10.76;100.00
34931;BME280;21134;49.646;8.560;2023-04-28T04:36:35;100061.16;;;10.76;100.00
34931;BME280;21134;49.646;8.560;2023-04-28T04:39:01;100062.84;;;10.79;100.00
34931;BME280;21134;49.646;8.560;2023-04-28T04:41:28;100063.69;;;10.79;100.00
34931;BME280;21134;49.646;8.560;2023-04-28T04:43:55;100070.47;;;10.85;100.00
34931;BME280;21134;49.646;8.560;2023-04-28T04:46:21;100073.84;;;10.88;100.00
34931;BME280;21134;49.646;8.560;2023-04-28T04:48:48;100065.28;;;10.89;100.00
34931;BME280;21134;49.646;8.560;2023-04-28T04:51:16;100070.34;;;10.94;100.00
34931;BME280;21134;49.646;8.560;2023-04-28T04:53:42;100066.94;;;10.98;100.00
34931;BME280;21134;49.646;8.560;2023-04-28T04:56:09;100062.63;;;11.00;100.00
34931;BME280;21134;49.646;8.560;2023-04-28T04:58:36;100059.19;;;11.04;100.00
34931;BME280;21134;49.646;8.560;2023-04-28T05:01:02;100060.88;;;11.05;100.00
34931;BME280;21134;49.646;8.560;2023-04-28T05:03:29;100059.16;;;11.07;100.00
34931;BME280;21134;49.646;8.560;2023-04-28T05:05:56;100057.41;;;11.09;100.00
34931;BME280;21134;49.646;8.560;2023-04-28T05:08:24;100058.25;;;11.11;100.00
34931;BME280;21134;49.646;8.560;2023-04-28T05:10:50;100051.41;;;11.15;100.00
34931;BME280;21134;49.646;8.560;2023-04-28T05:13:17;100060.81;;;11.11;100.00
34931;BME280;21134;49.646;8.560;2023-04-28T05:15:44;100059.91;;;11.17;100.00
34931;BME280;21134;49.646;8.560;2023-04-28T05:18:10;100063.31;;;11.16;100.00
34931;BME280;21134;49.646;8.560;2023-04-28T05:20:38;100057.38;;;11.14;100.00
34931;BME280;21134;49.646;8.560;2023-04-28T05:23:05;100064.22;;;11.12;100.00
34931;BME280;21134;49.646;8.560;2023-04-28T05:25:33;100071.84;;;11.18;100.00
34931;BME280;21134;49.646;8.560;2023-04-28T05:28:00;100059.84;;;11.23;100.00
34931;BME280;21134;49.646;8.560;2023-04-28T05:30:31;100057.19;;;11.29;100.00
34931;BME280;21134;49.646;8.560;2023-04-28T05:32:58;100053.75;;;11.33;100.00
34931;BME280;21134;49.646;8.560;2023-04-28T05:35:24;100062.28;;;11.34;100.00
34931;BME280;21134;49.646;8.560;2023-04-28T05:37:51;100058.00;;;11.36;100.00
34931;BME280;21134;49.646;8.560;2023-04-28T05:40:18;100066.53;;;11.35;100.00
34931;BME280;21134;49.646;8.560;2023-04-28T05:42:46;100064.03;;;11.30;100.00
34931;BME280;21134;49.646;8.560;2023-04-28T05:45:12;100057.19;;;11.29;100.00
34931;BME280;21134;49.646;8.560;2023-04-28T05:47:39;100059.78;;;11.26;100.00
34931;BME280;21134;49.646;8.560;2023-04-28T05:50:07;100058.94;;;11.27;100.00
34931;BME280;21134;49.646;8.560;2023-04-28T05:52:33;100049.50;;;11.29;100.00
34931;BME280;21134;49.646;8.560;2023-04-28T05:55:00;100057.19;;;11.31;100.00
34931;BME280;21134;49.646;8.560;2023-04-28T05:57:27;100057.16;;;11.34;100.00
34931;BME280;21134;49.646;8.560;2023-04-28T05:59:54;100064.00;;;11.32;100.00
34931;BME280;21134;49.646;8.560;2023-04-28T06:02:21;100069.13;;;11.32;100.00
34931;BME280;21134;49.646;8.560;2023-04-28T06:04:48;100077.63;;;11.35;100.00
34931;BME280;21134;49.646;8.560;2023-04-28T06:07:14;100075.06;;;11.35;100.00
34931;BME280;21134;49.646;8.560;2023-04-28T06:09:41;100082.69;;;11.43;100.00
34931;BME280;21134;49.646;8.560;2023-04-28T06:12:08;100083.59;;;11.37;100.00
34931;BME280;21134;49.646;8.560;2023-04-28T06:14:34;100091.31;;;11.34;100.00
34931;BME280;21134;49.646;8.560;2023-04-28T06:17:03;100087.03;;;11.35;100.00
34931;BME280;21134;49.646;8.560;2023-04-28T06:19:30;100086.19;;;11.36;100.00
34931;BME280;21134;49.646;8.560;2023-04-28T06:21:56;100081.88;;;11.39;100.00
34931;BME280;21134;49.646;8.560;2023-04-28T06:24:23;100074.16;;;11.41;100.00
34931;BME280;21134;49.646;8.560;2023-04-28T06:26:50;100069.81;;;11.48;100.00
34931;BME280;21134;49.646;8.560;2023-04-28T06:29:16;100074.03;;;11.52;100.00
34931;BME280;21134;49.646;8.560;2023-04-28T06:31:44;100074.03;;;11.53;100.00
34931;BME280;21134;49.646;8.560;2023-04-28T06:34:12;100074.81;;;11.57;100.00
34931;BME280;21134;49.646;8.560;2023-04-28T06:36:39;100076.50;;;11.58;100.00
34931;BME280;21134;49.646;8.560;2023-04-28T06:39:05;100079.91;;;11.60;100.00
34931;BME280;21134;49.646;8.560;2023-04-28T06:41:32;100084.19;;;11.59;100.00
34931;BME280;21134;49.646;8.560;2023-04-28T06:43:59;100074.78;;;11.60;100.00
34931;BME280;21134;49.646;8.560;2023-04-28T06:46:25;100070.53;;;11.57;100.00
34931;BME280;21134;49.646;8.560;2023-04-28T06:48:52;100081.63;;;11.58;100.00
34931;BME280;21134;49.646;8.560;2023-04-28T06:51:20;100076.56;;;11.55;100.00
34931;BME280;21134;49.646;8.560;2023-04-28T06:53:47;100075.72;;;11.54;100.00
34931;BME280;21134;49.646;8.560;2023-04-28T06:56:15;100077.38;;;11.58;100.00
34931;BME280;21134;49.646;8.560;2023-04-28T06:58:42;100076.44;;;11.64;100.00
34931;BME280;21134;49.646;8.560;2023-04-28T07:01:08;100075.53;;;11.70;100.00
34931;BME280;21134;49.646;8.560;2023-04-28T07:03:35;100076.34;;;11.75;100.00
34931;BME280;21134;49.646;8.560;2023-04-28T07:06:02;100072.06;;;11.74;100.00
34931;BME280;21134;49.646;8.560;2023-04-28T07:08:30;100067.81;;;11.74;100.00
34931;BME280;21134;49.646;8.560;2023-04-28T07:10:57;100074.66;;;11.72;100.00
34931;BME280;21134;49.646;8.560;2023-04-28T07:13:23;100077.13;;;11.78;100.00
34931;BME280;21134;49.646;8.560;2023-04-28T07:15:50;100074.56;;;11.78;100.00
34931;BME280;21134;49.646;8.560;2023-04-28T07:18:17;100071.97;;;11.80;100.00
34931;BME280;21134;49.646;8.560;2023-04-28T07:20:43;100068.53;;;11.84;100.00
34931;BME280;21134;49.646;8.560;2023-04-28T07:23:10;100072.72;;;11.91;100.00
34931;BME280;21134;49.646;8.560;2023-04-28T07:25:38;100066.69;;;11.97;100.00
34931;BME280;21134;49.646;8.560;2023-04-28T07:28:06;100063.16;;;12.04;100.00
34931;BME280;21134;49.646;8.560;2023-04-28T07:30:32;100064.84;;;12.06;100.00
34931;BME280;21134;49.646;8.560;2023-04-28T07:32:59;100066.44;;;12.12;100.00
34931;BME280;21134;49.646;8.560;2023-04-28T07:35:27;100065.56;;;12.15;100.00
34931;BME280;21134;49.646;8.560;2023-04-28T07:37:54;100050.78;;;12.30;100.00
34931;BME280;21134;49.646;8.560;2023-04-28T07:40:22;100058.25;;;12.44;100.00
34931;BME280;21134;49.646;8.560;2023-04-28T07:42:50;100052.09;;;12.57;100.00
34931;BME280;21134;49.646;8.560;2023-04-28T07:45:17;100058.81;;;12.63;100.00
34931;BME280;21134;49.646;8.560;2023-04-28T07:47:43;100052.84;;;12.63;100.00
34931;BME280;21134;49.646;8.560;2023-04-28T07:50:10;100056.09;;;12.74;100.00
34931;BME280;21134;49.646;8.560;2023-04-28T07:52:37;100052.63;;;12.76;100.00
34931;BME280;21134;49.646;8.560;2023-04-28T07:55:04;100052.44;;;12.86;100.00
34931;BME280;21134;49.646;8.560;2023-04-28T07:57:31;100050.50;;;12.98;100.00
34931;BME280;21134;49.646;8.560;2023-04-28T07:59:59;100053.78;;;13.08;100.00
34931;BME280;21134;49.646;8.560;2023-04-28T08:02:25;100048.91;;;13.41;100.00
34931;BME280;21134;49.646;8.560;2023-04-28T08:04:52;100048.44;;;13.64;100.00
34931;BME280;21134;49.646;8.560;2023-04-28T08:07:18;100052.91;;;13.96;100.00
34931;BME280;21134;49.646;8.560;2023-04-28T08:09:45;100055.97;;;14.12;100.00
34931;BME280;21134;49.646;8.560;2023-04-28T08:12:12;100052.56;;;14.11;100.00
34931;BME280;21134;49.646;8.560;2023-04-28T08:14:39;100038.59;;;14.23;100.00
34931;BME280;21134;49.646;8.560;2023-04-28T08:17:07;100054.09;;;14.20;100.00
34931;BME280;21134;49.646;8.560;2023-04-28T08:19:33;100067.72;;;14.24;100.00
34931;BME280;21134;49.646;8.560;2023-04-28T08:22:00;100061.06;;;14.15;100.00
34931;BME280;21134;49.646;8.560;2023-04-28T08:24:30;100074.66;;;14.20;100.00
34931;BME280;21134;49.646;8.560;2023-04-28T08:26:59;100071.94;;;14.26;100.00
34931;BME280;21134;49.646;8.560;2023-04-28T08:29:27;100067.25;;;14.43;100.00
34931;BME280;21134;49.646;8.560;2023-04-28T08:31:53;100055.53;;;14.68;100.00
34931;BME280;21134;49.646;8.560;2023-04-28T08:34:21;100057.81;;;14.80;100.00
34931;BME280;21134;49.646;8.560;2023-04-28T08:36:48;100070.75;;;14.77;100.00
34931;BME280;21134;49.646;8.560;2023-04-28T08:39:15;100076.09;;;14.69;100.00
34931;BME280;21134;49.646;8.560;2023-04-28T08:41:42;100065.38;;;14.86;100.00
34931;BME280;21134;49.646;8.560;2023-04-28T08:44:09;100074.13;;;15.13;99.07
34931;BME280;21134;49.646;8.560;2023-04-28T08:46:39;100077.63;;;15.10;98.50
34931;BME280;21134;49.646;8.560;2023-04-28T08:49:06;100070.13;;;15.03;98.59
34931;BME280;21134;49.646;8.560;2023-04-28T08:51:43;100071.19;;;14.94;99.57
34931;BME280;21134;49.646;8.560;2023-04-28T08:54:13;100079.59;;;15.01;100.00
34931;BME280;21134;49.646;8.560;2023-04-28T08:56:41;100066.34;;;15.15;100.00
34931;BME280;21134;49.646;8.560;2023-04-28T08:59:10;100058.63;;;15.46;98.95
34931;BME280;21134;49.646;8.560;2023-04-28T09:01:37;100073.41;;;15.72;96.44
34931;BME280;21134;49.646;8.560;2023-04-28T09:04:04;100069.16;;;15.38;97.06
34931;BME280;21134;49.646;8.560;2023-04-28T09:06:32;100077.56;;;15.14;97.27
34931;BME280;21134;49.646;8.560;2023-04-28T09:09:18;100079.53;;;15.04;99.17
34931;BME280;21134;49.646;8.560;2023-04-28T09:11:52;100086.50;;;15.33;97.94
34931;BME280;21134;49.646;8.560;2023-04-28T09:14:19;100088.00;;;15.40;98.25
34931;BME280;21134;49.646;8.560;2023-04-28T09:16:46;100086.50;;;15.33;97.31
34931;BME280;21134;49.646;8.560;2023-04-28T09:19:13;100094.75;;;15.44;98.01
34931;BME280;21134;49.646;8.560;2023-04-28T09:21:45;100082.16;;;15.65;97.32
34931;BME280;21134;49.646;8.560;2023-04-28T09:24:25;100093.34;;;15.67;97.96
34931;BME280;21134;49.646;8.560;2023-04-28T09:26:51;100092.16;;;15.46;96.42
34931;BME280;21134;49.646;8.560;2023-04-28T09:29:18;100088.09;;;15.37;97.87
34931;BME280;21134;49.646;8.560;2023-04-28T09:31:44;100083.78;;;15.38;97.92
34931;BME280;21134;49.646;8.560;2023-04-28T09:34:11;100082.00;;;15.40;98.61
34931;BME280;21134;49.646;8.560;2023-04-28T09:36:37;100084.78;;;15.63;98.00
34931;BME280;21134;49.646;8.560;2023-04-28T09:39:04;100088.03;;;15.71;97.16
34931;BME280;21134;49.646;8.560;2023-04-28T09:41:36;100081.44;;;15.59;97.45
34931;BME280;21134;49.646;8.560;2023-04-28T09:44:11;100093.47;;;15.61;96.66
34931;BME280;21134;49.646;8.560;2023-04-28T09:46:38;100087.66;;;15.52;97.57
34931;BME280;21134;49.646;8.560;2023-04-28T09:49:05;100088.81;;;15.42;98.32
34931;BME280;21134;49.646;8.560;2023-04-28T09:51:33;100080.31;;;15.39;99.86
34931;BME280;21134;49.646;8.560;2023-04-28T09:54:00;100089.75;;;15.40;99.97
34931;BME280;21134;49.646;8.560;2023-04-28T09:56:28;100087.00;;;15.46;99.75
34931;BME280;21134;49.646;8.560;2023-04-28T09:58:58;100089.41;;;15.52;100.00
34931;BME280;21134;49.646;8.560;2023-04-28T10:01:26;100090.97;;;15.57;98.71
34931;BME280;21134;49.646;8.560;2023-04-28T10:03:53;100092.81;;;15.52;99.23
34931;BME280;21134;49.646;8.560;2023-04-28T10:06:21;100097.47;;;15.40;99.84
34931;BME280;21134;49.646;8.560;2023-04-28T10:08:49;100101.88;;;15.36;100.00
34931;BME280;21134;49.646;8.560;2023-04-28T10:11:16;100083.22;;;15.26;100.00
34931;BME280;21134;49.646;8.560;2023-04-28T10:13:43;100084.22;;;15.22;100.00
34931;BME280;21134;49.646;8.560;2023-04-28T10:16:13;100082.34;;;15.27;100.00
34931;BME280;21134;49.646;8.560;2023-04-28T10:18:40;100083.41;;;15.51;100.00
34931;BME280;21134;49.646;8.560;2023-04-28T10:21:09;100081.28;;;15.67;97.82
34931;BME280;21134;49.646;8.560;2023-04-28T10:23:58;100073.88;;;15.85;98.49
34931;BME280;21134;49.646;8.560;2023-04-28T10:29:14;100088.44;;;15.87;98.16
34931;BME280;21134;49.646;8.560;2023-04-28T10:34:52;100083.28;;;15.87;96.16
34931;BME280;21134;49.646;8.560;2023-04-28T10:38:04;100074.28;;;15.71;97.19
34931;BME280;21134;49.646;8.560;2023-04-28T10:40:31;100073.22;;;15.78;97.84
34931;BME280;21134;49.646;8.560;2023-04-28T10:42:58;100081.63;;;15.85;98.12
34931;BME280;21134;49.646;8.560;2023-04-28T10:46:03;100068.72;;;15.85;99.14
34931;BME280;21134;49.646;8.560;2023-04-28T10:48:53;100064.97;;;15.95;97.55
34931;BME280;21134;49.646;8.560;2023-04-28T10:51:31;100069.22;;;16.25;96.40
34931;BME280;21134;49.646;8.560;2023-04-28T10:54:17;100067.34;;;16.31;96.11
34931;BME280;21134;49.646;8.560;2023-04-28T10:57:18;100065.19;;;16.70;95.80
34931;BME280;21134;49.646;8.560;2023-04-28T10:59:46;100067.84;;;17.20;93.10
34931;BME280;21134;49.646;8.560;2023-04-28T11:02:39;100079.72;;;17.49;89.76
34931;BME280;21134;49.646;8.560;2023-04-28T11:05:13;100067.88;;;17.18;90.41
34931;BME280;21134;49.646;8.560;2023-04-28T11:11:14;100064.63;;;16.88;93.12
34931;BME280;21134;49.646;8.560;2023-04-28T11:13:41;100077.38;;;16.66;94.21
34931;BME280;21134;49.646;8.560;2023-04-28T11:16:12;100071.13;;;16.47;96.00
34931;BME280;21134;49.646;8.560;2023-04-28T11:18:55;100056.91;;;16.34;96.41
34931;BME280;21134;49.646;8.560;2023-04-28T11:21:24;100068.69;;;16.14;97.15
34931;BME280;21134;49.646;8.560;2023-04-28T11:23:54;100069.34;;;15.93;98.64
34931;BME280;21134;49.646;8.560;2023-04-28T11:26:20;100065.38;;;15.83;100.00
34931;BME280;21134;49.646;8.560;2023-04-28T11:28:52;100065.63;;;15.73;100.00
34931;BME280;21134;49.646;8.560;2023-04-28T11:31:19;100068.56;;;15.59;100.00
34931;BME280;21134;49.646;8.560;2023-04-28T11:33:50;100076.53;;;15.50;100.00
34931;BME280;21134;49.646;8.560;2023-04-28T11:36:26;100067.13;;;15.49;100.00
34931;BME280;21134;49.646;8.560;2023-04-28T11:38:54;100059.38;;;15.51;100.00
34931;BME280;21134;49.646;8.560;2023-04-28T11:41:22;100050.75;;;15.50;100.00
34931;BME280;21134;49.646;8.560;2023-04-28T11:43:49;100048.91;;;15.55;100.00
34931;BME280;21134;49.646;8.560;2023-04-28T11:46:16;100064.06;;;15.68;100.00
34931;BME280;21134;49.646;8.560;2023-04-28T11:48:43;100063.63;;;15.83;100.00
34931;BME280;21134;49.646;8.560;2023-04-28T11:51:10;100057.28;;;15.93;100.00
34931;BME280;21134;49.646;8.560;2023-04-28T11:53:51;100054.56;;;15.98;100.00
34931;BME280;21134;49.646;8.560;2023-04-28T11:56:19;100057.78;;;16.04;100.00
34931;BME280;21134;49.646;8.560;2023-04-28T11:58:58;100055.22;;;16.04;100.00
34931;BME280;21134;49.646;8.560;2023-04-28T12:01:25;100062.03;;;16.07;100.00
34931;BME280;21134;49.646;8.560;2023-04-28T12:03:51;100053.00;;;16.20;100.00
34931;BME280;21134;49.646;8.560;2023-04-28T12:06:19;100060.34;;;16.34;100.00
34931;BME280;21134;49.646;8.560;2023-04-28T12:08:46;100066.25;;;16.38;100.00
34931;BME280;21134;49.646;8.560;2023-04-28T12:11:13;100065.44;;;16.36;100.00
34931;BME280;21134;49.646;8.560;2023-04-28T12:14:01;100070.56;;;16.09;100.00
34931;BME280;21134;49.646;8.560;2023-04-28T12:16:36;100065.97;;;15.91;100.00
34931;BME280;21134;49.646;8.560;2023-04-28T12:19:07;100061.13;;;15.80;100.00
34931;BME280;21134;49.646;8.560;2023-04-28T12:21:35;100068.03;;;15.79;100.00
34931;BME280;21134;49.646;8.560;2023-04-28T12:24:12;100061.47;;;15.66;100.00
34931;BME280;21134;49.646;8.560;2023-04-28T12:26:39;100061.47;;;15.68;100.00
34931;BME280;21134;49.646;8.560;2023-04-28T12:29:07;100058.72;;;15.74;100.00
34931;BME280;21134;49.646;8.560;2023-04-28T12:31:47;100062.09;;;15.76;100.00
34931;BME280;21134;49.646;8.560;2023-04-28T12:34:13;100065.63;;;15.73;100.00
34931;BME280;21134;49.646;8.560;2023-04-28T12:36:40;100062.25;;;15.71;100.00
34931;BME280;21134;49.646;8.560;2023-04-28T12:39:12;100064.75;;;15.73;100.00
34931;BME280;21134;49.646;8.560;2023-04-28T12:41:40;100069.72;;;15.80;100.00
34931;BME280;21134;49.646;8.560;2023-04-28T12:44:08;100067.63;;;15.92;100.00
34931;BME280;21134;49.646;8.560;2023-04-28T12:46:35;100064.88;;;15.98;100.00
34931;BME280;21134;49.646;8.560;2023-04-28T12:49:02;100062.97;;;16.04;100.00
34931;BME280;21134;49.646;8.560;2023-04-28T12:51:28;100063.81;;;16.05;100.00
34931;BME280;21134;49.646;8.560;2023-04-28T12:53:55;100061.34;;;16.02;100.00
34931;BME280;21134;49.646;8.560;2023-04-28T12:56:21;100045.78;;;16.03;100.00
34931;BME280;21134;49.646;8.560;2023-04-28T12:58:48;100046.59;;;16.06;100.00